sensor_id;sensor_type;location;lat;lon;timestamp;P1;durP1;ratioP1;P2;durP2;ratioP2
43152;SDS011;28756;49.064;9.290;2023-06-24T00:00:01;3.47;;;2.80;;
43152;SDS011;28756;49.064;9.290;2023-06-24T00:02:31;3.20;;;2.70;;
43152;SDS011;28756;49.064;9.290;2023-06-24T00:05:01;3.35;;;2.70;;
43152;SDS011;28756;49.064;9.290;2023-06-24T00:07:31;3.03;;;2.60;;
43152;SDS011;28756;49.064;9.290;2023-06-24T00:09:57;2.90;;;2.50;;
43152;SDS011;28756;49.064;9.290;2023-06-24T00:12:25;3.70;;;2.50;;
43152;SDS011;28756;49.064;9.290;2023-06-24T00:14:51;3.30;;;2.63;;
43152;SDS011;28756;49.064;9.290;2023-06-24T00:17:17;3.45;;;3.00;;
43152;SDS011;28756;49.064;9.290;2023-06-24T00:19:45;5.57;;;2.70;;
43152;SDS011;28756;49.064;9.290;2023-06-24T00:22:11;2.95;;;2.65;;
43152;SDS011;28756;49.064;9.290;2023-06-24T00:24:43;3.33;;;2.80;;
43152;SDS011;28756;49.064;9.290;2023-06-24T00:27:08;4.78;;;3.03;;
43152;SDS011;28756;49.064;9.290;2023-06-24T00:29:34;3.10;;;2.80;;
43152;SDS011;28756;49.064;9.290;2023-06-24T00:32:02;4.03;;;2.80;;
43152;SDS011;28756;49.064;9.290;2023-06-24T00:34:35;2.95;;;2.65;;
43152;SDS011;28756;49.064;9.290;2023-06-24T00:37:01;3.63;;;2.67;;
43152;SDS011;28756;49.064;9.290;2023-06-24T00:39:28;3.15;;;2.53;;
43152;SDS011;28756;49.064;9.290;2023-06-24T00:41:54;3.05;;;2.40;;
43152;SDS011;28756;49.064;9.290;2023-06-24T00:44:20;3.53;;;2.78;;
43152;SDS011;28756;49.064;9.290;2023-06-24T00:46:53;2.97;;;2.63;;
43152;SDS011;28756;49.064;9.290;2023-06-24T00:49:22;4.15;;;2.70;;
43152;SDS011;28756;49.064;9.290;2023-06-24T00:51:48;2.70;;;2.45;;
43152;SDS011;28756;49.064;9.290;2023-06-24T00:54:17;3.40;;;2.90;;
43152;SDS011;28756;49.064;9.290;2023-06-24T00:56:52;3.17;;;2.88;;
43152;SDS011;28756;49.064;9.290;2023-06-24T00:59:32;3.00;;;2.60;;
43152;SDS011;28756;49.064;9.290;2023-06-24T01:02:08;3.17;;;2.58;;
43152;SDS011;28756;49.064;9.290;2023-06-24T01:04:42;5.32;;;2.92;;
43152;SDS011;28756;49.064;9.290;2023-06-24T01:07:26;2.72;;;2.30;;
43152;SDS011;28756;49.064;9.290;2023-06-24T01:09:55;3.45;;;3.00;;
43152;SDS011;28756;49.064;9.290;2023-06-24T01:12:40;3.63;;;2.67;;
43152;SDS011;28756;49.064;9.290;2023-06-24T01:15:19;3.13;;;2.63;;
43152;SDS011;28756;49.064;9.290;2023-06-24T01:18:10;2.97;;;2.67;;
43152;SDS011;28756;49.064;9.290;2023-06-24T01:20:55;3.78;;;2.70;;
43152;SDS011;28756;49.064;9.290;2023-06-24T01:32:59;3.53;;;2.70;;
43152;SDS011;28756;49.064;9.290;2023-06-24T01:35:37;3.28;;;2.40;;
43152;SDS011;28756;49.064;9.290;2023-06-24T01:38:07;3.03;;;2.72;;
43152;SDS011;28756;49.064;9.290;2023-06-24T01:40:53;2.85;;;2.55;;
43152;SDS011;28756;49.064;9.290;2023-06-24T01:43:29;3.30;;;2.78;;
43152;SDS011;28756;49.064;9.290;2023-06-24T01:46:01;3.03;;;2.63;;
43152;SDS011;28756;49.064;9.290;2023-06-24T01:48:34;3.85;;;2.67;;
43152;SDS011;28756;49.064;9.290;2023-06-24T01:53:44;4.20;;;3.10;;
43152;SDS011;28756;49.064;9.290;2023-06-24T01:56:32;4.28;;;2.70;;
43152;SDS011;28756;49.064;9.290;2023-06-24T01:59:02;4.90;;;2.75;;
43152;SDS011;28756;49.064;9.290;2023-06-24T02:01:31;4.25;;;2.90;;
43152;SDS011;28756;49.064;9.290;2023-06-24T02:04:01;4.07;;;2.67;;
43152;SDS011;28756;49.064;9.290;2023-06-24T02:06:32;2.90;;;2.60;;
43152;SDS011;28756;49.064;9.290;2023-06-24T02:09:02;2.92;;;2.47;;
43152;SDS011;28756;49.064;9.290;2023-06-24T02:11:36;5.35;;;3.08;;
43152;SDS011;28756;49.064;9.290;2023-06-24T02:14:04;3.10;;;2.80;;
43152;SDS011;28756;49.064;9.290;2023-06-24T02:16:35;3.28;;;2.63;;
43152;SDS011;28756;49.064;9.290;2023-06-24T02:19:02;2.50;;;2.20;;
43152;SDS011;28756;49.064;9.290;2023-06-24T02:21:33;3.53;;;2.50;;
43152;SDS011;28756;49.064;9.290;2023-06-24T02:24:01;3.28;;;2.80;;
43152;SDS011;28756;49.064;9.290;2023-06-24T02:26:28;3.50;;;2.88;;
43152;SDS011;28756;49.064;9.290;2023-06-24T02:28:53;2.90;;;2.60;;
43152;SDS011;28756;49.064;9.290;2023-06-24T02:31:20;4.90;;;2.92;;
43152;SDS011;28756;49.064;9.290;2023-06-24T02:33:46;3.40;;;3.03;;
43152;SDS011;28756;49.064;9.290;2023-06-24T02:36:12;4.38;;;2.88;;
43152;SDS011;28756;49.064;9.290;2023-06-24T02:38:38;3.40;;;3.00;;
43152;SDS011;28756;49.064;9.290;2023-06-24T02:41:03;3.65;;;2.90;;
43152;SDS011;28756;49.064;9.290;2023-06-24T02:43:30;4.22;;;2.75;;
43152;SDS011;28756;49.064;9.290;2023-06-24T02:45:57;3.30;;;2.80;;
43152;SDS011;28756;49.064;9.290;2023-06-24T02:48:26;2.92;;;2.63;;
43152;SDS011;28756;49.064;9.290;2023-06-24T02:50:55;3.75;;;2.83;;
43152;SDS011;28756;49.064;9.290;2023-06-24T02:53:23;4.10;;;2.85;;
43152;SDS011;28756;49.064;9.290;2023-06-24T02:55:49;5.28;;;2.78;;
43152;SDS011;28756;49.064;9.290;2023-06-24T02:58:16;3.97;;;3.03;;
43152;SDS011;28756;49.064;9.290;2023-06-24T03:00:42;3.53;;;2.90;;
43152;SDS011;28756;49.064;9.290;2023-06-24T03:03:07;3.47;;;2.92;;
43152;SDS011;28756;49.064;9.290;2023-06-24T03:05:34;3.05;;;2.63;;
43152;SDS011;28756;49.064;9.290;2023-06-24T03:08:00;4.38;;;2.63;;
43152;SDS011;28756;49.064;9.290;2023-06-24T03:10:27;3.13;;;2.80;;
43152;SDS011;28756;49.064;9.290;2023-06-24T03:12:53;3.28;;;2.85;;
43152;SDS011;28756;49.064;9.290;2023-06-24T03:15:18;4.78;;;3.10;;
43152;SDS011;28756;49.064;9.290;2023-06-24T03:17:45;3.30;;;2.60;;
43152;SDS011;28756;49.064;9.290;2023-06-24T03:20:11;2.78;;;2.45;;
43152;SDS011;28756;49.064;9.290;2023-06-24T03:22:37;3.47;;;2.72;;
43152;SDS011;28756;49.064;9.290;2023-06-24T03:25:02;3.13;;;2.78;;
43152;SDS011;28756;49.064;9.290;2023-06-24T03:27:28;4.05;;;2.60;;
43152;SDS011;28756;49.064;9.290;2023-06-24T03:29:56;4.85;;;3.28;;
43152;SDS011;28756;49.064;9.290;2023-06-24T03:32:22;3.70;;;2.80;;
43152;SDS011;28756;49.064;9.290;2023-06-24T03:34:47;4.13;;;2.88;;
43152;SDS011;28756;49.064;9.290;2023-06-24T03:37:13;3.05;;;2.70;;
43152;SDS011;28756;49.064;9.290;2023-06-24T03:39:39;2.92;;;2.63;;
43152;SDS011;28756;49.064;9.290;2023-06-24T03:42:05;4.30;;;3.00;;
43152;SDS011;28756;49.064;9.290;2023-06-24T03:44:31;4.45;;;2.97;;
43152;SDS011;28756;49.064;9.290;2023-06-24T03:46:57;5.63;;;3.08;;
43152;SDS011;28756;49.064;9.290;2023-06-24T03:49:22;3.72;;;2.47;;
43152;SDS011;28756;49.064;9.290;2023-06-24T03:51:48;3.17;;;2.80;;
43152;SDS011;28756;49.064;9.290;2023-06-24T03:54:14;4.03;;;3.00;;
43152;SDS011;28756;49.064;9.290;2023-06-24T03:56:40;3.20;;;2.72;;
43152;SDS011;28756;49.064;9.290;2023-06-24T03:59:05;3.83;;;3.08;;
43152;SDS011;28756;49.064;9.290;2023-06-24T04:01:32;5.07;;;2.95;;
43152;SDS011;28756;49.064;9.290;2023-06-24T04:03:58;3.65;;;2.85;;
43152;SDS011;28756;49.064;9.290;2023-06-24T04:06:24;3.30;;;2.67;;
43152;SDS011;28756;49.064;9.290;2023-06-24T04:08:50;3.47;;;2.70;;
43152;SDS011;28756;49.064;9.290;2023-06-24T04:11:17;5.60;;;2.97;;
43152;SDS011;28756;49.064;9.290;2023-06-24T04:13:43;4.43;;;2.90;;
43152;SDS011;28756;49.064;9.290;2023-06-24T04:16:10;4.40;;;3.10;;
43152;SDS011;28756;49.064;9.290;2023-06-24T04:18:36;4.43;;;3.30;;
43152;SDS011;28756;49.064;9.290;2023-06-24T04:21:04;4.10;;;3.05;;
43152;SDS011;28756;49.064;9.290;2023-06-24T04:23:33;3.83;;;3.08;;
43152;SDS011;28756;49.064;9.290;2023-06-24T04:25:59;3.20;;;2.90;;
43152;SDS011;28756;49.064;9.290;2023-06-24T04:28:25;4.32;;;2.80;;
43152;SDS011;28756;49.064;9.290;2023-06-24T04:30:51;3.58;;;2.53;;
43152;SDS011;28756;49.064;9.290;2023-06-24T04:33:17;2.92;;;2.63;;
43152;SDS011;28756;49.064;9.290;2023-06-24T04:35:43;4.55;;;2.85;;
43152;SDS011;28756;49.064;9.290;2023-06-24T04:38:09;2.97;;;2.65;;
43152;SDS011;28756;49.064;9.290;2023-06-24T04:40:35;4.00;;;2.70;;
43152;SDS011;28756;49.064;9.290;2023-06-24T04:43:02;3.65;;;2.70;;
43152;SDS011;28756;49.064;9.290;2023-06-24T04:45:27;2.70;;;2.42;;
43152;SDS011;28756;49.064;9.290;2023-06-24T04:47:53;2.58;;;2.38;;
43152;SDS011;28756;49.064;9.290;2023-06-24T04:50:19;3.17;;;2.60;;
43152;SDS011;28756;49.064;9.290;2023-06-24T04:52:44;3.20;;;2.80;;
43152;SDS011;28756;49.064;9.290;2023-06-24T04:55:10;5.75;;;3.10;;
43152;SDS011;28756;49.064;9.290;2023-06-24T04:57:36;5.63;;;2.75;;
43152;SDS011;28756;49.064;9.290;2023-06-24T05:00:02;4.15;;;2.70;;
43152;SDS011;28756;49.064;9.290;2023-06-24T05:02:29;3.17;;;2.65;;
43152;SDS011;28756;49.064;9.290;2023-06-24T05:04:55;3.00;;;2.65;;
43152;SDS011;28756;49.064;9.290;2023-06-24T05:07:21;3.15;;;2.70;;
43152;SDS011;28756;49.064;9.290;2023-06-24T05:09:47;4.82;;;3.00;;
43152;SDS011;28756;49.064;9.290;2023-06-24T05:12:13;3.60;;;3.00;;
43152;SDS011;28756;49.064;9.290;2023-06-24T05:14:39;3.55;;;3.00;;
43152;SDS011;28756;49.064;9.290;2023-06-24T05:17:05;4.53;;;2.75;;
43152;SDS011;28756;49.064;9.290;2023-06-24T05:19:31;3.33;;;2.70;;
43152;SDS011;28756;49.064;9.290;2023-06-24T05:21:58;3.28;;;2.72;;
43152;SDS011;28756;49.064;9.290;2023-06-24T05:24:24;4.45;;;3.00;;
43152;SDS011;28756;49.064;9.290;2023-06-24T05:26:50;3.08;;;2.75;;
43152;SDS011;28756;49.064;9.290;2023-06-24T05:29:16;4.15;;;3.03;;
43152;SDS011;28756;49.064;9.290;2023-06-24T05:31:43;3.47;;;2.72;;
43152;SDS011;28756;49.064;9.290;2023-06-24T05:34:09;4.93;;;2.53;;
43152;SDS011;28756;49.064;9.290;2023-06-24T05:36:34;3.40;;;3.10;;
43152;SDS011;28756;49.064;9.290;2023-06-24T05:39:00;2.75;;;2.50;;
43152;SDS011;28756;49.064;9.290;2023-06-24T05:41:26;3.22;;;2.85;;
43152;SDS011;28756;49.064;9.290;2023-06-24T05:44:02;3.10;;;2.58;;
43152;SDS011;28756;49.064;9.290;2023-06-24T05:46:30;3.42;;;2.65;;
43152;SDS011;28756;49.064;9.290;2023-06-24T05:48:56;3.33;;;2.83;;
43152;SDS011;28756;49.064;9.290;2023-06-24T05:51:21;4.43;;;2.90;;
43152;SDS011;28756;49.064;9.290;2023-06-24T05:53:47;4.68;;;2.83;;
43152;SDS011;28756;49.064;9.290;2023-06-24T05:56:13;3.55;;;3.17;;
43152;SDS011;28756;49.064;9.290;2023-06-24T05:58:38;2.80;;;2.60;;
43152;SDS011;28756;49.064;9.290;2023-06-24T06:01:05;3.55;;;2.72;;
43152;SDS011;28756;49.064;9.290;2023-06-24T06:03:32;3.30;;;2.80;;
43152;SDS011;28756;49.064;9.290;2023-06-24T06:05:58;3.10;;;2.80;;
43152;SDS011;28756;49.064;9.290;2023-06-24T06:08:24;3.60;;;2.78;;
43152;SDS011;28756;49.064;9.290;2023-06-24T06:10:49;3.20;;;2.75;;
43152;SDS011;28756;49.064;9.290;2023-06-24T06:13:15;3.13;;;2.83;;
43152;SDS011;28756;49.064;9.290;2023-06-24T06:15:41;3.17;;;2.88;;
43152;SDS011;28756;49.064;9.290;2023-06-24T06:18:08;3.15;;;2.63;;
43152;SDS011;28756;49.064;9.290;2023-06-24T06:20:33;3.00;;;2.70;;
43152;SDS011;28756;49.064;9.290;2023-06-24T06:22:59;3.67;;;3.03;;
43152;SDS011;28756;49.064;9.290;2023-06-24T06:25:25;4.00;;;2.97;;
43152;SDS011;28756;49.064;9.290;2023-06-24T06:27:50;3.50;;;3.03;;
43152;SDS011;28756;49.064;9.290;2023-06-24T06:30:16;3.30;;;3.00;;
43152;SDS011;28756;49.064;9.290;2023-06-24T06:32:42;3.22;;;2.88;;
43152;SDS011;28756;49.064;9.290;2023-06-24T06:35:08;4.10;;;3.30;;
43152;SDS011;28756;49.064;9.290;2023-06-24T06:37:34;3.90;;;3.03;;
43152;SDS011;28756;49.064;9.290;2023-06-24T06:40:00;3.70;;;2.80;;
43152;SDS011;28756;49.064;9.290;2023-06-24T06:42:25;4.55;;;2.72;;
43152;SDS011;28756;49.064;9.290;2023-06-24T06:44:51;3.30;;;2.80;;
43152;SDS011;28756;49.064;9.290;2023-06-24T06:47:17;3.63;;;2.92;;
43152;SDS011;28756;49.064;9.290;2023-06-24T06:49:42;4.28;;;2.88;;
43152;SDS011;28756;49.064;9.290;2023-06-24T06:52:08;3.13;;;2.80;;
43152;SDS011;28756;49.064;9.290;2023-06-24T06:54:34;4.93;;;2.70;;
43152;SDS011;28756;49.064;9.290;2023-06-24T06:57:00;5.10;;;2.75;;
43152;SDS011;28756;49.064;9.290;2023-06-24T06:59:30;3.58;;;2.65;;
43152;SDS011;28756;49.064;9.290;2023-06-24T07:01:56;3.35;;;2.78;;
43152;SDS011;28756;49.064;9.290;2023-06-24T07:04:22;2.97;;;2.65;;
43152;SDS011;28756;49.064;9.290;2023-06-24T07:06:48;3.83;;;2.78;;
43152;SDS011;28756;49.064;9.290;2023-06-24T07:09:14;3.10;;;2.40;;
43152;SDS011;28756;49.064;9.290;2023-06-24T07:11:40;3.03;;;2.58;;
43152;SDS011;28756;49.064;9.290;2023-06-24T07:14:07;4.65;;;2.65;;
43152;SDS011;28756;49.064;9.290;2023-06-24T07:16:33;3.80;;;3.13;;
43152;SDS011;28756;49.064;9.290;2023-06-24T07:18:58;4.45;;;2.83;;
43152;SDS011;28756;49.064;9.290;2023-06-24T07:21:24;3.95;;;2.55;;
43152;SDS011;28756;49.064;9.290;2023-06-24T07:23:50;3.03;;;2.72;;
43152;SDS011;28756;49.064;9.290;2023-06-24T07:26:15;3.30;;;2.70;;
43152;SDS011;28756;49.064;9.290;2023-06-24T07:28:41;2.85;;;2.60;;
43152;SDS011;28756;49.064;9.290;2023-06-24T07:31:07;4.00;;;2.70;;
43152;SDS011;28756;49.064;9.290;2023-06-24T07:33:33;3.53;;;2.70;;
43152;SDS011;28756;49.064;9.290;2023-06-24T07:35:59;3.20;;;2.65;;
43152;SDS011;28756;49.064;9.290;2023-06-24T07:38:27;3.83;;;3.15;;
43152;SDS011;28756;49.064;9.290;2023-06-24T07:40:53;2.72;;;2.45;;
43152;SDS011;28756;49.064;9.290;2023-06-24T07:43:19;2.80;;;2.47;;
43152;SDS011;28756;49.064;9.290;2023-06-24T07:45:45;3.45;;;2.40;;
43152;SDS011;28756;49.064;9.290;2023-06-24T07:48:10;2.80;;;2.60;;
43152;SDS011;28756;49.064;9.290;2023-06-24T07:50:37;2.92;;;2.63;;
43152;SDS011;28756;49.064;9.290;2023-06-24T07:53:04;3.17;;;2.80;;
43152;SDS011;28756;49.064;9.290;2023-06-24T07:55:30;3.17;;;2.88;;
43152;SDS011;28756;49.064;9.290;2023-06-24T07:57:55;2.85;;;2.38;;
43152;SDS011;28756;49.064;9.290;2023-06-24T08:00:23;2.88;;;2.58;;
43152;SDS011;28756;49.064;9.290;2023-06-24T08:02:49;3.80;;;2.78;;
43152;SDS011;28756;49.064;9.290;2023-06-24T08:05:15;2.83;;;2.20;;
43152;SDS011;28756;49.064;9.290;2023-06-24T08:07:43;2.88;;;2.63;;
43152;SDS011;28756;49.064;9.290;2023-06-24T08:10:09;4.68;;;2.95;;
43152;SDS011;28756;49.064;9.290;2023-06-24T08:12:35;3.25;;;2.92;;
43152;SDS011;28756;49.064;9.290;2023-06-24T08:15:01;3.50;;;2.92;;
43152;SDS011;28756;49.064;9.290;2023-06-24T08:17:27;3.13;;;2.83;;
43152;SDS011;28756;49.064;9.290;2023-06-24T08:19:53;3.85;;;3.40;;
43152;SDS011;28756;49.064;9.290;2023-06-24T08:22:18;2.80;;;2.50;;
43152;SDS011;28756;49.064;9.290;2023-06-24T08:24:44;2.50;;;2.30;;
43152;SDS011;28756;49.064;9.290;2023-06-24T08:27:10;2.75;;;2.30;;
43152;SDS011;28756;49.064;9.290;2023-06-24T08:29:36;4.20;;;2.50;;
43152;SDS011;28756;49.064;9.290;2023-06-24T08:32:03;5.78;;;2.40;;
43152;SDS011;28756;49.064;9.290;2023-06-24T08:34:31;2.50;;;2.30;;
43152;SDS011;28756;49.064;9.290;2023-06-24T08:36:58;2.67;;;2.40;;
43152;SDS011;28756;49.064;9.290;2023-06-24T08:39:24;2.80;;;2.60;;
43152;SDS011;28756;49.064;9.290;2023-06-24T08:41:49;2.40;;;2.20;;
43152;SDS011;28756;49.064;9.290;2023-06-24T08:44:16;2.67;;;2.47;;
43152;SDS011;28756;49.064;9.290;2023-06-24T08:46:41;2.80;;;2.50;;
43152;SDS011;28756;49.064;9.290;2023-06-24T08:52:15;3.45;;;2.38;;
43152;SDS011;28756;49.064;9.290;2023-06-24T08:54:41;3.55;;;2.60;;
43152;SDS011;28756;49.064;9.290;2023-06-24T08:57:11;5.15;;;2.60;;
43152;SDS011;28756;49.064;9.290;2023-06-24T08:59:40;2.92;;;2.42;;
43152;SDS011;28756;49.064;9.290;2023-06-24T09:02:07;3.03;;;2.72;;
43152;SDS011;28756;49.064;9.290;2023-06-24T09:04:33;2.45;;;2.17;;
43152;SDS011;28756;49.064;9.290;2023-06-24T09:06:59;2.83;;;2.42;;
43152;SDS011;28756;49.064;9.290;2023-06-24T09:09:25;3.65;;;2.20;;
43152;SDS011;28756;49.064;9.290;2023-06-24T09:11:57;2.53;;;2.10;;
43152;SDS011;28756;49.064;9.290;2023-06-24T09:14:25;3.97;;;2.58;;
43152;SDS011;28756;49.064;9.290;2023-06-24T09:16:54;3.22;;;2.20;;
43152;SDS011;28756;49.064;9.290;2023-06-24T09:19:23;3.90;;;2.38;;
43152;SDS011;28756;49.064;9.290;2023-06-24T09:22:01;2.70;;;2.25;;
43152;SDS011;28756;49.064;9.290;2023-06-24T09:24:32;3.30;;;2.42;;
43152;SDS011;28756;49.064;9.290;2023-06-24T09:26:59;22.92;;;2.83;;
43152;SDS011;28756;49.064;9.290;2023-06-24T09:29:26;2.25;;;2.05;;
43152;SDS011;28756;49.064;9.290;2023-06-24T09:31:56;2.35;;;2.15;;
43152;SDS011;28756;49.064;9.290;2023-06-24T09:34:24;2.47;;;2.28;;
43152;SDS011;28756;49.064;9.290;2023-06-24T09:36:53;2.85;;;2.17;;
43152;SDS011;28756;49.064;9.290;2023-06-24T09:39:22;2.90;;;2.00;;
43152;SDS011;28756;49.064;9.290;2023-06-24T09:41:58;3.33;;;2.45;;
43152;SDS011;28756;49.064;9.290;2023-06-24T09:44:26;2.53;;;2.03;;
43152;SDS011;28756;49.064;9.290;2023-06-24T09:46:53;2.78;;;2.47;;
43152;SDS011;28756;49.064;9.290;2023-06-24T09:49:21;2.40;;;2.17;;
43152;SDS011;28756;49.064;9.290;2023-06-24T09:51:48;2.58;;;2.20;;
43152;SDS011;28756;49.064;9.290;2023-06-24T09:54:19;2.20;;;2.00;;
43152;SDS011;28756;49.064;9.290;2023-06-24T09:56:48;2.17;;;1.98;;
43152;SDS011;28756;49.064;9.290;2023-06-24T09:59:15;2.30;;;2.10;;
43152;SDS011;28756;49.064;9.290;2023-06-24T10:01:49;2.20;;;2.00;;
43152;SDS011;28756;49.064;9.290;2023-06-24T10:04:19;2.00;;;1.80;;
43152;SDS011;28756;49.064;9.290;2023-06-24T10:06:47;2.13;;;1.92;;
43152;SDS011;28756;49.064;9.290;2023-06-24T10:09:13;2.05;;;1.85;;
43152;SDS011;28756;49.064;9.290;2023-06-24T10:11:42;2.38;;;2.17;;
43152;SDS011;28756;49.064;9.290;2023-06-24T10:14:12;2.55;;;2.00;;
43152;SDS011;28756;49.064;9.290;2023-06-24T10:16:40;2.50;;;2.30;;
43152;SDS011;28756;49.064;9.290;2023-06-24T10:19:07;2.88;;;2.20;;
43152;SDS011;28756;49.064;9.290;2023-06-24T10:24:31;2.20;;;2.00;;
43152;SDS011;28756;49.064;9.290;2023-06-24T10:27:03;3.00;;;2.45;;
43152;SDS011;28756;49.064;9.290;2023-06-24T10:29:34;2.00;;;1.80;;
43152;SDS011;28756;49.064;9.290;2023-06-24T10:32:05;2.47;;;2.28;;
43152;SDS011;28756;49.064;9.290;2023-06-24T10:34:38;1.90;;;1.80;;
43152;SDS011;28756;49.064;9.290;2023-06-24T10:39:48;2.10;;;1.90;;
43152;SDS011;28756;49.064;9.290;2023-06-24T10:47:36;2.63;;;1.85;;
43152;SDS011;28756;49.064;9.290;2023-06-24T10:50:07;2.85;;;1.80;;
43152;SDS011;28756;49.064;9.290;2023-06-24T10:52:38;1.98;;;1.80;;
43152;SDS011;28756;49.064;9.290;2023-06-24T10:55:15;1.95;;;1.80;;
43152;SDS011;28756;49.064;9.290;2023-06-24T10:57:43;1.80;;;1.67;;
43152;SDS011;28756;49.064;9.290;2023-06-24T11:00:10;1.83;;;1.73;;
43152;SDS011;28756;49.064;9.290;2023-06-24T11:02:37;2.60;;;1.85;;
43152;SDS011;28756;49.064;9.290;2023-06-24T11:05:03;2.00;;;1.60;;
43152;SDS011;28756;49.064;9.290;2023-06-24T11:07:31;1.80;;;1.70;;
43152;SDS011;28756;49.064;9.290;2023-06-24T11:10:03;2.03;;;1.80;;
43152;SDS011;28756;49.064;9.290;2023-06-24T11:12:34;2.10;;;1.88;;
43152;SDS011;28756;49.064;9.290;2023-06-24T11:15:02;1.75;;;1.65;;
43152;SDS011;28756;49.064;9.290;2023-06-24T11:17:36;2.40;;;2.08;;
43152;SDS011;28756;49.064;9.290;2023-06-24T11:20:07;2.28;;;1.83;;
43152;SDS011;28756;49.064;9.290;2023-06-24T11:22:35;1.95;;;1.75;;
43152;SDS011;28756;49.064;9.290;2023-06-24T11:25:00;2.03;;;1.80;;
43152;SDS011;28756;49.064;9.290;2023-06-24T11:27:26;2.53;;;2.10;;
43152;SDS011;28756;49.064;9.290;2023-06-24T11:29:54;2.30;;;2.00;;
43152;SDS011;28756;49.064;9.290;2023-06-24T11:32:40;2.00;;;1.75;;
43152;SDS011;28756;49.064;9.290;2023-06-24T11:35:08;2.25;;;1.80;;
43152;SDS011;28756;49.064;9.290;2023-06-24T11:37:35;2.05;;;1.77;;
43152;SDS011;28756;49.064;9.290;2023-06-24T11:40:08;2.00;;;1.80;;
43152;SDS011;28756;49.064;9.290;2023-06-24T11:42:35;2.20;;;1.90;;
43152;SDS011;28756;49.064;9.290;2023-06-24T11:45:09;2.20;;;1.90;;
43152;SDS011;28756;49.064;9.290;2023-06-24T11:47:37;1.88;;;1.77;;
43152;SDS011;28756;49.064;9.290;2023-06-24T11:50:05;1.90;;;1.67;;
43152;SDS011;28756;49.064;9.290;2023-06-24T12:00:31;1.70;;;1.60;;
43152;SDS011;28756;49.064;9.290;2023-06-24T12:03:07;2.60;;;1.83;;
43152;SDS011;28756;49.064;9.290;2023-06-24T12:05:35;2.85;;;1.88;;
43152;SDS011;28756;49.064;9.290;2023-06-24T12:10:32;2.15;;;1.60;;
43152;SDS011;28756;49.064;9.290;2023-06-24T12:12:59;2.00;;;1.70;;
43152;SDS011;28756;49.064;9.290;2023-06-24T12:15:27;2.10;;;1.90;;
43152;SDS011;28756;49.064;9.290;2023-06-24T12:17:53;1.70;;;1.60;;
43152;SDS011;28756;49.064;9.290;2023-06-24T12:20:19;1.83;;;1.73;;
43152;SDS011;28756;49.064;9.290;2023-06-24T12:22:46;1.90;;;1.80;;
43152;SDS011;28756;49.064;9.290;2023-06-24T12:25:13;2.60;;;1.90;;
43152;SDS011;28756;49.064;9.290;2023-06-24T12:27:39;1.67;;;1.58;;
43152;SDS011;28756;49.064;9.290;2023-06-24T12:30:07;2.15;;;1.80;;
43152;SDS011;28756;49.064;9.290;2023-06-24T12:32:33;1.83;;;1.50;;
43152;SDS011;28756;49.064;9.290;2023-06-24T12:34:59;1.95;;;1.52;;
43152;SDS011;28756;49.064;9.290;2023-06-24T12:37:27;2.55;;;1.90;;
43152;SDS011;28756;49.064;9.290;2023-06-24T12:40:00;1.60;;;1.50;;
43152;SDS011;28756;49.064;9.290;2023-06-24T12:42:27;1.52;;;1.42;;
43152;SDS011;28756;49.064;9.290;2023-06-24T12:44:53;1.98;;;1.77;;
43152;SDS011;28756;49.064;9.290;2023-06-24T12:47:19;2.15;;;1.90;;
43152;SDS011;28756;49.064;9.290;2023-06-24T12:49:45;1.73;;;1.52;;
43152;SDS011;28756;49.064;9.290;2023-06-24T12:52:12;2.10;;;1.55;;
43152;SDS011;28756;49.064;9.290;2023-06-24T12:54:38;1.83;;;1.50;;
43152;SDS011;28756;49.064;9.290;2023-06-24T12:57:04;1.85;;;1.70;;
43152;SDS011;28756;49.064;9.290;2023-06-24T12:59:30;2.05;;;1.83;;
43152;SDS011;28756;49.064;9.290;2023-06-24T13:01:56;1.83;;;1.70;;
43152;SDS011;28756;49.064;9.290;2023-06-24T13:04:22;1.92;;;1.80;;
43152;SDS011;28756;49.064;9.290;2023-06-24T13:06:49;2.03;;;1.50;;
43152;SDS011;28756;49.064;9.290;2023-06-24T13:09:16;1.50;;;1.40;;
43152;SDS011;28756;49.064;9.290;2023-06-24T13:11:42;1.73;;;1.60;;
43152;SDS011;28756;49.064;9.290;2023-06-24T13:14:08;1.83;;;1.60;;
43152;SDS011;28756;49.064;9.290;2023-06-24T13:16:34;1.58;;;1.48;;
43152;SDS011;28756;49.064;9.290;2023-06-24T13:19:04;1.67;;;1.58;;
43152;SDS011;28756;49.064;9.290;2023-06-24T13:21:29;2.03;;;1.70;;
43152;SDS011;28756;49.064;9.290;2023-06-24T13:23:55;1.70;;;1.60;;
43152;SDS011;28756;49.064;9.290;2023-06-24T13:26:21;1.95;;;1.45;;
43152;SDS011;28756;49.064;9.290;2023-06-24T13:28:47;1.98;;;1.77;;
43152;SDS011;28756;49.064;9.290;2023-06-24T13:31:14;1.92;;;1.80;;
43152;SDS011;28756;49.064;9.290;2023-06-24T13:33:40;2.33;;;1.60;;
43152;SDS011;28756;49.064;9.290;2023-06-24T13:36:06;2.13;;;1.65;;
43152;SDS011;28756;49.064;9.290;2023-06-24T13:38:36;2.00;;;1.80;;
43152;SDS011;28756;49.064;9.290;2023-06-24T13:41:02;1.65;;;1.55;;
43152;SDS011;28756;49.064;9.290;2023-06-24T13:43:28;2.38;;;1.77;;
43152;SDS011;28756;49.064;9.290;2023-06-24T13:45:54;2.08;;;1.77;;
43152;SDS011;28756;49.064;9.290;2023-06-24T13:48:19;1.83;;;1.70;;
43152;SDS011;28756;49.064;9.290;2023-06-24T13:50:45;1.70;;;1.60;;
43152;SDS011;28756;49.064;9.290;2023-06-24T13:53:11;1.90;;;1.70;;
43152;SDS011;28756;49.064;9.290;2023-06-24T13:55:37;1.58;;;1.40;;
43152;SDS011;28756;49.064;9.290;2023-06-24T13:58:02;2.38;;;1.55;;
43152;SDS011;28756;49.064;9.290;2023-06-24T14:00:28;2.10;;;1.90;;
43152;SDS011;28756;49.064;9.290;2023-06-24T14:02:54;2.10;;;1.90;;
43152;SDS011;28756;49.064;9.290;2023-06-24T14:05:20;2.40;;;2.05;;
43152;SDS011;28756;49.064;9.290;2023-06-24T14:07:46;3.00;;;2.20;;
43152;SDS011;28756;49.064;9.290;2023-06-24T14:10:11;2.20;;;2.00;;
43152;SDS011;28756;49.064;9.290;2023-06-24T14:12:37;5.10;;;1.95;;
43152;SDS011;28756;49.064;9.290;2023-06-24T14:15:04;2.38;;;1.55;;
43152;SDS011;28756;49.064;9.290;2023-06-24T14:17:30;2.92;;;2.00;;
43152;SDS011;28756;49.064;9.290;2023-06-24T14:19:56;1.90;;;1.70;;
43152;SDS011;28756;49.064;9.290;2023-06-24T14:22:21;1.95;;;1.75;;
43152;SDS011;28756;49.064;9.290;2023-06-24T14:24:48;1.85;;;1.65;;
43152;SDS011;28756;49.064;9.290;2023-06-24T14:27:14;1.80;;;1.60;;
43152;SDS011;28756;49.064;9.290;2023-06-24T14:29:39;2.40;;;1.70;;
43152;SDS011;28756;49.064;9.290;2023-06-24T14:32:06;1.80;;;1.70;;
43152;SDS011;28756;49.064;9.290;2023-06-24T14:34:35;1.80;;;1.50;;
43152;SDS011;28756;49.064;9.290;2023-06-24T14:37:00;2.00;;;1.80;;
43152;SDS011;28756;49.064;9.290;2023-06-24T14:39:26;2.08;;;1.88;;
43152;SDS011;28756;49.064;9.290;2023-06-24T14:41:53;1.90;;;1.70;;
43152;SDS011;28756;49.064;9.290;2023-06-24T14:44:19;1.83;;;1.63;;
43152;SDS011;28756;49.064;9.290;2023-06-24T14:46:44;1.92;;;1.73;;
43152;SDS011;28756;49.064;9.290;2023-06-24T14:49:10;2.03;;;1.83;;
43152;SDS011;28756;49.064;9.290;2023-06-24T14:51:36;2.67;;;2.10;;
43152;SDS011;28756;49.064;9.290;2023-06-24T14:54:01;3.13;;;2.10;;
43152;SDS011;28756;49.064;9.290;2023-06-24T14:56:27;1.60;;;1.48;;
43152;SDS011;28756;49.064;9.290;2023-06-24T14:58:53;2.42;;;1.70;;
43152;SDS011;28756;49.064;9.290;2023-06-24T15:01:19;2.10;;;1.80;;
43152;SDS011;28756;49.064;9.290;2023-06-24T15:03:44;1.90;;;1.80;;
43152;SDS011;28756;49.064;9.290;2023-06-24T15:06:10;1.70;;;1.60;;
43152;SDS011;28756;49.064;9.290;2023-06-24T15:08:36;1.88;;;1.73;;
43152;SDS011;28756;49.064;9.290;2023-06-24T15:11:02;2.08;;;1.88;;
43152;SDS011;28756;49.064;9.290;2023-06-24T15:13:27;2.42;;;2.03;;
43152;SDS011;28756;49.064;9.290;2023-06-24T15:15:53;2.47;;;1.75;;
43152;SDS011;28756;49.064;9.290;2023-06-24T15:18:21;1.95;;;1.70;;
43152;SDS011;28756;49.064;9.290;2023-06-24T15:20:48;2.13;;;1.90;;
43152;SDS011;28756;49.064;9.290;2023-06-24T15:23:13;1.95;;;1.75;;
43152;SDS011;28756;49.064;9.290;2023-06-24T15:25:42;2.08;;;1.88;;